Terminal Aerodrome Forecast
Issued by NWS Norman, OK

Current Version | Previous Version | Text Only | Print | Product List | Glossary On
Versions: 1 2 3 4 5 6 7 8 9 10 11 12 13 14 15 16 17 18 19 20 21 22 23 24 25 26 27
000
FTUS44 KOUN 231747
TAFOKC
TAF
KOKC 231747Z 2318/2418 35010KT P6SM SCT070 SCT130 BKN200
     FM240100 VRB04KT P6SM SCT050 SCT200
     FM241200 09005KT P6SM BKN280=

USA.gov is the U.S. government's official web portal to all federal, state and local government web resources and services.